Time;durP1;ratioP1;P1;durP2;ratioP2;P2;SDS_P1;SDS_P2;PMS_P1;PMS_P2;Temp;Humidity;BMP_temperature;BMP_pressure;BME280_temperature;BME280_humidity;BME280_pressure;Samples;Min_cycle;Max_cycle;Signal;HPM_P1;HPM_P2
2022/09/24 00:01:26;;;;;;;4.00;2.97;;;;;;;7.47;91.85;97284.13;5044568;28;20049;-66
2022/09/24 00:03:59;;;;;;;4.43;2.97;;;;;;;6.79;92.53;97197.66;5044380;28;20048;-67
2022/09/24 00:06:28;;;;;;;3.25;2.55;;;;;;;7.22;91.10;97283.28;5044555;28;20163;-66
2022/09/24 00:08:56;;;;;;;4.43;3.00;;;;;;;6.58;91.97;97196.91;5042676;28;20288;-68
2022/09/24 00:11:25;;;;;;;3.55;3.03;;;;;;;7.17;90.56;97351.59;5044541;28;20136;-66
2022/09/24 00:13:53;;;;;;;5.88;3.47;;;;;;;7.11;90.87;97287.63;5042644;28;20053;-66
2022/09/24 00:16:22;;;;;;;5.90;3.15;;;;;;;6.94;91.45;97287.84;5044311;28;20044;-67
2022/09/24 00:18:48;;;;;;;4.88;3.40;;;;;;;6.19;92.77;97172.75;5042651;28;20512;-67
2022/09/24 00:21:30;;;;;;;6.65;3.47;;;;;;;6.92;93.09;97300.34;5046296;28;20057;-67
2022/09/24 00:24:02;;;;;;;4.50;2.92;;;;;;;6.41;93.83;97218.31;5048369;28;20060;-67
2022/09/24 00:29:22;;;;;;;5.80;3.13;;;;;;;6.56;94.25;97221.22;5048214;28;20049;-67
2022/09/24 00:31:51;;;;;;;4.78;3.13;;;;;;;6.36;92.98;97180.81;5048404;28;20119;-67
2022/09/24 00:34:19;;;;;;;5.60;3.47;;;;;;;4.58;93.25;96932.13;5048251;28;20064;-68
2022/09/24 00:36:47;;;;;;;5.78;3.95;;;;;;;6.77;96.07;97296.28;5048513;28;20053;-67
2022/09/24 00:39:14;;;;;;;4.72;3.42;;;;;;;4.04;96.13;96839.97;5048163;28;20558;-67
2022/09/24 00:41:44;;;;;;;4.28;3.05;;;;;;;6.86;95.80;97285.97;5047721;28;20049;-67
2022/09/24 00:44:44;;;;;;;3.83;2.83;;;;;;;6.88;95.00;97280.94;5047984;28;20092;-66
2022/09/24 00:47:35;;;;;;;4.68;3.10;;;;;;;6.72;95.94;97279.97;5047516;28;20545;-68
2022/09/24 00:50:05;;;;;;;8.30;3.00;;;;;;;6.80;95.35;97281.03;5048196;28;20056;-67
2022/09/24 00:52:36;;;;;;;3.85;2.67;;;;;;;6.60;94.92;97255.19;5048127;28;20076;-66
2022/09/24 00:55:03;;;;;;;3.50;2.58;;;;;;;5.83;94.39;97123.13;5047625;28;20476;-67
2022/09/24 00:57:30;;;;;;;3.88;3.13;;;;;;;6.81;95.53;97277.16;5046480;28;20105;-66
2022/09/24 00:59:58;;;;;;;5.68;2.40;;;;;;;6.79;96.01;97274.75;5047769;28;20084;-67
2022/09/24 01:02:24;;;;;;;4.22;2.70;;;;;;;6.73;95.53;97276.09;5047356;28;20495;-67
2022/09/24 01:04:53;;;;;;;4.55;2.95;;;;;;;6.63;95.47;97249.00;5047263;28;20582;-66
2022/09/24 01:07:22;;;;;;;4.93;3.20;;;;;;;6.59;96.93;97250.81;5046072;28;20704;-67
2022/09/24 01:09:49;;;;;;;4.00;2.90;;;;;;;6.29;98.30;97210.84;5045945;28;20072;-67
2022/09/24 01:12:27;;;;;;;3.85;2.72;;;;;;;6.71;97.86;97267.38;5047482;28;20061;-68
2022/09/24 01:15:05;;;;;;;9.23;3.00;;;;;;;6.42;97.09;97242.72;5046905;28;20057;-66
2022/09/24 01:17:36;;;;;;;4.75;3.10;;;;;;;6.75;97.08;97284.03;5047585;28;20049;-67
2022/09/24 01:20:10;;;;;;;3.90;2.67;;;;;;;6.62;96.27;97285.94;5046971;28;20568;-67
2022/09/24 01:22:54;;;;;;;3.38;2.42;;;;;;;6.62;97.40;97285.94;5047524;28;20111;-68
2022/09/24 01:25:57;;;;;;;3.05;2.53;;;;;;;6.65;97.30;97279.75;5046711;28;20490;-67
2022/09/24 01:28:32;;;;;;;3.42;2.75;;;;;;;6.23;97.00;97228.66;5047296;28;20084;-69
2022/09/24 01:31:07;;;;;;;6.57;3.00;;;;;;;5.83;97.57;97176.13;5046916;28;20136;-67
2022/09/24 01:33:35;;;;;;;4.47;2.78;;;;;;;6.57;96.20;97277.88;5047121;28;20061;-67
2022/09/24 01:36:07;;;;;;;6.10;2.83;;;;;;;6.62;97.09;97283.19;5047134;28;20084;-67
2022/09/24 01:38:41;;;;;;;4.13;2.78;;;;;;;6.46;97.11;97243.69;5045417;28;20068;-67
2022/09/24 01:41:10;;;;;;;5.05;2.78;;;;;;;5.87;96.61;97168.03;5046655;28;20285;-67
2022/09/24 01:43:38;;;;;;;4.65;2.80;;;;;;;6.37;95.61;97229.19;5046321;28;20080;-67
2022/09/24 01:46:05;;;;;;;4.93;2.90;;;;;;;6.67;95.45;97288.44;5046981;28;20053;-68
2022/09/24 01:48:36;;;;;;;4.25;2.72;;;;;;;5.70;94.20;97132.44;5045374;28;20063;-68
2022/09/24 01:51:13;;;;;;;6.18;3.53;;;;;;;6.64;95.14;97291.88;5045555;28;20053;-67
2022/09/24 01:53:58;;;;;;;6.07;3.15;;;;;;;6.53;96.34;97287.16;5045347;28;20119;-67
2022/09/24 01:56:32;;;;;;;4.95;3.10;;;;;;;6.63;97.21;97298.53;5045292;28;20593;-66
2022/09/24 01:59:05;;;;;;;3.67;2.55;;;;;;;6.30;95.57;97244.63;5046532;28;20363;-67
2022/09/24 02:01:36;;;;;;;;;;;;;;;6.60;94.41;97290.97;5046861;28;20516;-67
2022/09/24 02:04:11;;;;;;;3.65;2.78;;;;;;;5.90;95.59;97236.06;5044827;28;20379;-67
2022/09/24 02:06:43;;;;;;;7.55;3.05;;;;;;;6.40;96.62;97294.56;5046330;28;20080;-67
2022/09/24 02:09:33;;;;;;;4.17;3.17;;;;;;;6.37;96.18;97366.72;5046411;28;20057;-67
2022/09/24 02:12:46;;;;;;;6.07;3.15;;;;;;;6.34;97.45;97306.88;5044961;28;20131;-67
2022/09/24 02:15:27;;;;;;;4.90;2.97;;;;;;;5.62;97.25;97185.50;5042020;28;20500;-68
2022/09/24 02:18:04;;;;;;;4.82;3.22;;;;;;;6.38;95.66;97302.34;5045552;28;20134;-68
2022/09/24 02:20:35;;;;;;;5.30;2.85;;;;;;;6.41;96.79;97301.66;5044863;28;20149;-67
2022/09/24 02:23:03;;;;;;;4.57;3.17;;;;;;;6.46;97.21;97297.88;5045390;28;20114;-68
2022/09/24 02:25:36;;;;;;;3.92;2.85;;;;;;;6.48;96.40;97301.91;5044493;28;20084;-67
2022/09/24 02:28:02;;;;;;;4.03;2.85;;;;;;;6.04;96.83;97258.59;4997693;28;20152;-68
2022/09/24 02:30:36;;;;;;;6.13;3.05;;;;;;;6.31;96.15;97280.06;5023763;28;20540;-67
2022/09/24 02:34:19;;;;;;;3.28;2.92;;;;;;;5.88;97.27;97235.63;5025586;28;20080;-67
2022/09/24 02:35:53;;;;;;;4.70;3.22;;;;;;;6.35;97.26;97307.69;5024890;28;20147;-67
2022/09/24 02:38:20;;;;;;;3.20;2.67;;;;;;;6.30;98.09;97294.97;5023365;28;20084;-68
2022/09/24 02:40:47;;;;;;;3.67;2.58;;;;;;;5.17;97.46;97118.66;5022769;28;20050;-67
2022/09/24 02:43:14;;;;;;;3.63;2.42;;;;;;;5.39;98.54;97176.00;5022928;28;20053;-68
2022/09/24 02:45:40;;;;;;;3.33;2.33;;;;;;;5.88;96.86;97216.38;5024384;28;20053;-67
2022/09/24 02:48:07;;;;;;;4.93;2.40;;;;;;;5.60;95.84;97172.09;5025231;28;20127;-66
2022/09/24 02:50:34;;;;;;;5.20;2.95;;;;;;;6.33;95.02;97287.97;5024994;28;20085;-67
2022/09/24 02:53:00;;;;;;;4.35;2.63;;;;;;;5.55;94.46;97190.72;5025170;28;20057;-67
2022/09/24 02:55:27;;;;;;;6.53;3.13;;;;;;;5.27;94.04;97197.88;5023015;28;20076;-66
2022/09/24 02:57:54;;;;;;;4.72;2.95;;;;;;;5.95;95.05;97299.13;5023361;28;20057;-67
2022/09/24 03:00:20;;;;;;;5.35;3.13;;;;;;;4.76;95.09;97124.06;5024166;28;20587;-67
2022/09/24 03:02:47;;;;;;;5.97;3.42;;;;;;;5.83;96.53;97312.78;5024587;28;20143;-67
2022/09/24 03:05:17;;;;;;;3.70;3.15;;;;;;;5.59;97.11;97296.09;5024237;28;20057;-68
2022/09/24 03:07:44;;;;;;;4.43;3.20;;;;;;;5.48;97.89;97279.19;5023020;28;20547;-67
2022/09/24 03:10:11;;;;;;;6.20;3.22;;;;;;;4.53;98.65;97123.53;5022735;28;20088;-67
2022/09/24 03:12:39;;;;;;;10.55;3.60;;;;;;;5.68;98.53;97316.88;5023146;28;20119;-67
2022/09/24 03:15:06;;;;;;;5.50;3.13;;;;;;;5.29;98.13;97236.78;4980774;28;1274980;-66
2022/09/24 03:17:32;;;;;;;5.40;3.63;;;;;;;5.68;98.35;97305.88;5025283;28;20084;-68
2022/09/24 03:19:59;;;;;;;5.00;3.45;;;;;;;5.87;97.84;97325.53;5024841;28;20135;-67
2022/09/24 03:22:26;;;;;;;6.75;3.70;;;;;;;5.82;97.62;97325.72;5023702;28;20508;-67
2022/09/24 03:24:52;;;;;;;5.75;3.88;;;;;;;5.69;97.97;97328.69;5025207;28;20115;-67
2022/09/24 03:27:20;;;;;;;7.78;3.75;;;;;;;5.71;98.35;97321.72;5025137;28;20060;-67
2022/09/24 03:32:32;;;;;;;5.05;3.10;;;;;;;5.77;97.87;97309.38;5024874;28;20611;-67
2022/09/24 03:35:00;;;;;;;8.15;3.83;;;;;;;5.74;98.06;97321.03;5024924;28;20145;-67
2022/09/24 03:37:26;;;;;;;6.38;3.50;;;;;;;5.73;98.49;97324.13;5024507;28;20061;-67
2022/09/24 03:39:53;;;;;;;6.57;4.00;;;;;;;5.82;98.23;97344.13;5023459;28;20115;-67
2022/09/24 03:42:19;;;;;;;8.88;4.35;;;;;;;5.81;98.41;97320.53;5024358;28;20053;-67
2022/09/24 03:44:46;;;;;;;6.15;3.25;;;;;;;5.89;98.14;97333.44;5023421;28;20592;-67
2022/09/24 03:47:13;;;;;;;6.50;3.42;;;;;;;5.67;98.64;97331.78;5024150;28;20500;-67
2022/09/24 03:49:39;;;;;;;5.13;3.85;;;;;;;5.09;99.97;97237.56;5024556;28;20141;-68
2022/09/24 03:52:06;;;;;;;6.32;4.00;;;;;;;4.97;98.58;97322.50;5024588;28;20141;-67
2022/09/24 03:54:32;;;;;;;4.55;3.55;;;;;;;4.98;99.24;97269.25;5023254;28;20061;-67
2022/09/24 03:56:59;;;;;;;7.75;4.03;;;;;;;5.36;98.88;97346.94;5024393;28;20053;-67
2022/09/24 03:59:26;;;;;;;9.38;4.45;;;;;;;4.81;98.37;97278.31;5024220;28;20511;-68
2022/09/24 04:01:52;;;;;;;8.25;4.82;;;;;;;5.24;98.52;97333.09;5039110;28;20095;-67
2022/09/24 04:04:19;;;;;;;8.15;4.18;;;;;;;5.40;97.75;97348.69;5024438;28;20132;-68
2022/09/24 04:06:45;;;;;;;8.50;4.43;;;;;;;5.29;98.73;97330.16;5023959;28;20057;-68
2022/09/24 04:09:12;;;;;;;8.25;4.70;;;;;;;5.48;98.11;97350.63;5024363;28;20053;-67
2022/09/24 04:11:38;;;;;;;6.82;4.70;;;;;;;5.57;97.19;97369.78;5024092;28;20397;-67
2022/09/24 04:14:05;;;;;;;16.58;6.28;;;;;;;4.44;97.19;97211.28;5024181;28;20093;-67
2022/09/24 04:16:32;;;;;;;14.57;4.97;;;;;;;5.09;100.00;97372.06;5022684;28;20133;-67
2022/09/24 04:18:59;;;;;;;11.82;5.32;;;;;;;4.82;100.00;97326.56;5024663;28;20451;-68
2022/09/24 04:21:25;;;;;;;27.02;7.22;;;;;;;5.08;99.92;97334.75;5024060;28;20111;-68
2022/09/24 04:23:52;;;;;;;31.40;9.20;;;;;;;5.35;99.38;97378.28;5024639;28;20539;-68
2022/09/24 04:26:19;;;;;;;19.27;6.53;;;;;;;5.38;99.67;97378.44;5024188;28;20085;-68
2022/09/24 04:28:46;;;;;;;7.05;3.90;;;;;;;4.46;97.81;97208.22;5023094;28;20092;-67
2022/09/24 04:31:12;;;;;;;9.40;4.53;;;;;;;5.56;98.57;97381.91;5024029;28;20132;-67
2022/09/24 04:33:39;;;;;;;17.10;7.95;;;;;;;4.75;99.28;97243.97;5022561;28;20053;-67
2022/09/24 04:36:06;;;;;;;11.07;4.90;;;;;;;5.75;100.00;97418.84;5023382;28;20135;-67
2022/09/24 04:38:32;;;;;;;7.75;4.22;;;;;;;4.74;99.34;97209.44;5024812;28;20108;-67
2022/09/24 04:41:07;;;;;;;6.68;4.43;;;;;;;4.93;98.03;97253.78;5023710;28;20049;-67
2022/09/24 04:43:35;;;;;;;6.13;4.05;;;;;;;5.66;99.02;97343.06;5022486;28;20503;-68
2022/09/24 04:46:03;;;;;;;5.00;3.50;;;;;;;6.11;98.44;97397.19;5022430;28;20570;-67
2022/09/24 04:48:30;;;;;;;7.15;4.35;;;;;;;5.89;95.79;97347.19;5022605;28;20638;-67
2022/09/24 04:50:57;;;;;;;6.07;4.30;;;;;;;5.23;96.59;97244.41;5024148;28;20088;-67
2022/09/24 04:53:24;;;;;;;7.55;5.13;;;;;;;6.04;96.34;97343.84;5024206;28;20582;-67
2022/09/24 04:55:50;;;;;;;6.68;4.97;;;;;;;6.51;95.04;97394.81;5022457;28;20642;-69
2022/09/24 04:58:18;;;;;;;8.85;6.07;;;;;;;6.25;93.25;97350.16;5024010;28;20053;-67
2022/09/24 05:00:44;;;;;;;8.63;5.90;;;;;;;6.67;92.99;97398.53;5024291;28;20252;-67
2022/09/24 05:03:11;;;;;;;12.68;8.30;;;;;;;6.72;93.05;97381.03;5022762;28;20590;-68
2022/09/24 05:05:38;;;;;;;18.67;13.20;;;;;;;6.84;93.59;97392.91;5024393;28;20061;-68
2022/09/24 05:08:05;;;;;;;26.73;20.92;;;;;;;6.51;93.59;97356.28;5025924;28;20535;-67
2022/09/24 05:10:32;;;;;;;31.50;25.85;;;;;;;6.95;94.46;97368.50;5026035;28;20053;-68
2022/09/24 05:12:59;;;;;;;39.28;28.48;;;;;;;7.21;93.80;97391.88;5027312;28;20064;-68
2022/09/24 05:15:26;;;;;;;38.47;23.02;;;;;;;7.01;93.70;97337.66;5027431;28;20077;-68
2022/09/24 05:17:52;;;;;;;19.48;12.70;;;;;;;7.55;93.88;97386.00;5025624;28;20143;-66
2022/09/24 05:20:19;;;;;;;14.30;9.70;;;;;;;5.73;92.83;97066.63;5027099;28;20142;-66
2022/09/24 05:22:51;;;;;;;11.20;7.05;;;;;;;7.85;92.32;97383.03;5027153;28;20100;-68
2022/09/24 05:25:20;;;;;;;5.57;4.10;;;;;;;7.89;90.73;97372.94;5036691;28;20080;-68
2022/09/24 05:27:48;;;;;;;4.03;3.40;;;;;;;8.04;89.67;97381.31;5047113;28;20084;-66
2022/09/24 05:30:16;;;;;;;8.30;4.82;;;;;;;8.27;88.40;97367.84;5045473;28;20060;-67
2022/09/24 05:32:45;;;;;;;5.85;3.50;;;;;;;8.14;85.66;97346.94;5046823;28;20601;-66
2022/09/24 05:35:12;;;;;;;5.07;3.28;;;;;;;8.03;85.32;97296.16;5046435;28;20563;-66
2022/09/24 05:37:39;;;;;;;7.88;4.38;;;;;;;8.50;85.90;97388.31;5046519;28;20083;-68
2022/09/24 05:43:01;;;;;;;4.47;3.85;;;;;;;8.15;85.18;97287.84;5046365;28;20044;-68
2022/09/24 05:45:29;;;;;;;6.18;3.70;;;;;;;9.00;85.12;97385.84;5046606;28;20057;-69
2022/09/24 05:47:55;;;;;;;4.82;3.08;;;;;;;9.23;83.59;97395.19;5046865;28;20106;-68
2022/09/24 05:50:22;;;;;;;4.75;3.53;;;;;;;9.22;80.68;97360.41;5046871;28;20087;-68
2022/09/24 05:52:49;;;;;;;4.43;3.72;;;;;;;9.69;79.52;97391.66;5046506;28;20098;-68
2022/09/24 05:55:15;;;;;;;5.60;3.47;;;;;;;9.10;79.57;97263.75;5046650;28;20460;-68
2022/09/24 05:57:42;;;;;;;3.53;3.22;;;;;;;9.97;78.17;97386.88;5046616;28;20061;-68
2022/09/24 06:00:10;;;;;;;3.65;3.08;;;;;;;10.07;77.86;97391.88;5040824;28;20131;-66
2022/09/24 06:02:36;;;;;;;5.00;3.83;;;;;;;10.03;77.12;97360.53;5043715;28;20140;-68
2022/09/24 06:05:03;;;;;;;5.88;3.65;;;;;;;10.48;76.95;97379.38;5045808;28;20492;-67
2022/09/24 06:07:29;;;;;;;4.18;3.50;;;;;;;10.38;76.64;97328.16;5045942;28;20048;-67
2022/09/24 06:09:58;;;;;;;3.85;3.25;;;;;;;10.80;76.23;97357.91;5046528;28;20484;-68
2022/09/24 06:12:24;;;;;;;4.30;3.80;;;;;;;11.12;74.73;97387.09;5044445;28;20489;-68
2022/09/24 06:14:52;;;;;;;5.40;3.58;;;;;;;11.33;72.62;97385.56;5045542;28;20468;-70
2022/09/24 06:17:19;;;;;;;7.38;4.45;;;;;;;11.36;72.05;97392.34;5064130;28;20044;-67
2022/09/24 06:19:46;;;;;;;5.82;3.67;;;;;;;10.85;71.89;97294.72;5056041;28;20052;-69
2022/09/24 06:22:13;;;;;;;6.40;3.78;;;;;;;11.25;72.19;97319.25;5051781;28;20490;-69
2022/09/24 06:24:40;;;;;;;4.72;3.80;;;;;;;11.89;71.15;97383.06;5044310;28;20057;-62
2022/09/24 06:27:06;;;;;;;5.25;3.97;;;;;;;11.80;70.88;97354.75;5045888;28;20135;-67
2022/09/24 06:29:34;;;;;;;6.53;3.85;;;;;;;11.31;70.71;97256.75;5045470;28;20128;-67
2022/09/24 06:32:01;;;;;;;4.60;3.65;;;;;;;12.24;69.92;97380.88;5045834;28;20053;-68
2022/09/24 06:34:27;;;;;;;7.20;4.30;;;;;;;11.65;68.64;97295.41;5044965;28;20052;-63
2022/09/24 06:36:55;;;;;;;6.47;4.15;;;;;;;12.60;67.22;97380.22;5057783;28;20144;-62
2022/09/24 06:39:23;;;;;;;5.00;4.40;;;;;;;11.97;66.38;97251.50;5064973;28;20084;-66
2022/09/24 06:41:50;;;;;;;5.03;4.53;;;;;;;11.95;65.59;97253.84;5065374;28;20209;-67
2022/09/24 06:44:18;;;;;;;6.47;3.97;;;;;;;12.96;63.64;97376.75;5059906;28;20078;-62
2022/09/24 06:46:45;;;;;;;5.25;4.38;;;;;;;13.08;63.56;97373.78;5065142;28;20139;-60
2022/09/24 06:49:11;;;;;;;4.32;3.92;;;;;;;12.70;63.72;97314.84;5064612;28;20052;-65
2022/09/24 06:51:38;;;;;;;6.13;4.88;;;;;;;13.49;61.91;97381.00;5064260;28;20132;-65
2022/09/24 06:54:05;;;;;;;8.18;6.50;;;;;;;13.17;61.52;97304.72;5049972;28;20073;-69
2022/09/24 06:56:31;;;;;;;4.65;3.78;;;;;;;12.92;60.87;97256.34;5044307;28;20423;-68
2022/09/24 06:58:58;;;;;;;6.00;4.18;;;;;;;13.94;60.20;97387.44;5044328;28;20060;-67
2022/09/24 07:01:25;;;;;;;4.15;3.63;;;;;;;14.13;59.78;97387.22;5045164;28;20052;-62
2022/09/24 07:03:51;;;;;;;3.70;3.40;;;;;;;12.52;59.48;97136.00;5045993;28;20045;-66
2022/09/24 07:06:18;;;;;;;3.83;3.53;;;;;;;13.48;59.97;97237.47;5043042;28;20092;-67
2022/09/24 07:08:49;;;;;;;5.38;4.10;;;;;;;14.06;58.23;97318.31;5025047;28;20097;-62
2022/09/24 07:11:16;;;;;;;5.22;3.95;;;;;;;14.56;58.56;97380.78;5041971;28;20056;-59
2022/09/24 07:13:42;;;;;;;4.22;3.83;;;;;;;14.36;57.99;97327.31;5030853;28;20167;-71
2022/09/24 07:16:09;;;;;;;3.85;3.55;;;;;;;13.38;57.47;97181.72;5044246;28;20110;-66
2022/09/24 07:18:37;;;;;;;4.95;4.28;;;;;;;14.61;57.15;97345.00;5044819;28;20056;-64
2022/09/24 07:21:04;;;;;;;9.00;5.18;;;;;;;14.54;57.89;97285.59;5062001;28;20049;-66
2022/09/24 07:23:30;;;;;;;5.70;4.10;;;;;;;14.49;57.29;97280.41;5051557;28;20040;-69
2022/09/24 07:25:57;;;;;;;5.43;4.03;;;;;;;15.31;56.65;97369.66;5062766;28;20487;-68
2022/09/24 07:28:24;;;;;;;5.15;3.90;;;;;;;15.52;55.89;97372.56;5056300;28;20045;-63
2022/09/24 07:30:58;;;;;;;5.10;4.25;;;;;;;15.70;55.50;97373.38;5042706;28;20136;-68
2022/09/24 07:33:25;;;;;;;3.72;3.22;;;;;;;14.86;54.91;97309.66;5044548;28;20053;-70
2022/09/24 07:35:52;;;;;;;5.05;4.55;;;;;;;15.06;55.94;97326.91;5047836;28;20131;-68
2022/09/24 07:38:19;;;;;;;4.10;3.80;;;;;;;15.72;54.38;97376.59;5044785;28;20095;-61
2022/09/24 07:40:45;;;;;;;4.90;4.43;;;;;;;15.65;53.24;97331.88;5046324;28;20167;-66
2022/09/24 07:43:13;;;;;;;6.18;3.65;;;;;;;15.41;53.12;97303.91;5038398;28;20081;-64
2022/09/24 07:45:41;;;;;;;4.00;3.63;;;;;;;15.77;52.88;97367.00;5058119;28;20052;-60
2022/09/24 07:48:09;;;;;;;4.07;3.78;;;;;;;16.01;53.52;97338.31;5062788;28;20589;-66
2022/09/24 07:50:40;;;;;;;4.68;4.25;;;;;;;15.65;52.81;97259.25;5052932;28;20605;-60
2022/09/24 07:53:11;;;;;;;4.47;3.75;;;;;;;16.02;50.64;97251.28;5057065;28;20076;-65
2022/09/24 07:55:39;;;;;;;4.50;4.10;;;;;;;16.94;50.29;97368.59;5033406;28;20098;-69
2022/09/24 07:58:15;;;;;;;4.20;3.80;;;;;;;16.87;48.52;97321.03;5061699;28;20130;-65
2022/09/24 08:00:42;;;;;;;3.92;3.63;;;;;;;17.28;47.60;97355.66;5034601;28;20145;-70
2022/09/24 08:03:09;;;;;;;3.00;2.80;;;;;;;17.09;46.48;97286.16;5033015;28;20140;-64
2022/09/24 08:05:43;;;;;;;3.42;3.13;;;;;;;17.21;42.25;97294.94;5033274;28;20084;-70
2022/09/24 08:08:11;;;;;;;3.28;3.08;;;;;;;17.54;40.80;97330.78;5043067;28;20060;-67
2022/09/24 08:10:38;;;;;;;3.72;3.42;;;;;;;17.21;41.06;97282.91;5042650;28;20145;-69
2022/09/24 08:13:05;;;;;;;4.30;3.78;;;;;;;16.92;40.78;97209.50;5042959;28;20511;-61
2022/09/24 08:15:32;;;;;;;3.25;3.05;;;;;;;17.44;41.02;97302.78;5042518;28;20128;-69
2022/09/24 08:18:03;;;;;;;3.33;3.13;;;;;;;17.78;40.88;97346.63;5057947;28;20053;-70
2022/09/24 08:20:32;;;;;;;3.65;3.40;;;;;;;17.39;40.73;97331.22;5048142;28;20084;-69
2022/09/24 08:23:03;;;;;;;2.95;2.63;;;;;;;17.57;40.86;97340.38;5044057;28;20566;-71
2022/09/24 08:25:30;;;;;;;3.28;2.97;;;;;;;17.69;38.54;97348.28;5039323;28;20049;-74
2022/09/24 08:28:04;;;;;;;3.38;3.08;;;;;;;17.76;37.66;97337.03;5023869;28;20073;-66
2022/09/24 08:30:32;;;;;;;3.33;3.10;;;;;;;16.24;37.05;97146.63;5021965;28;20057;-69
2022/09/24 08:32:59;;;;;;;3.38;3.17;;;;;;;17.42;37.13;97266.00;5042174;28;20056;-66
2022/09/24 08:35:26;;;;;;;3.72;3.42;;;;;;;17.93;37.62;97330.53;5043864;28;20089;-61
2022/09/24 08:37:53;;;;;;;3.22;2.97;;;;;;;17.34;36.96;97228.03;5028472;28;20472;-67
2022/09/24 08:40:24;;;;;;;3.53;3.13;;;;;;;17.74;36.66;97297.41;5031173;28;20048;-69
2022/09/24 08:43:21;;;;;;;4.50;2.75;;;;;;;17.94;36.61;97338.50;5055480;28;20048;-62
2022/09/24 08:48:45;;;;;;;3.63;3.33;;;;;;;16.99;35.91;97163.88;5047670;28;20045;-63
2022/09/24 08:51:19;;;;;;;3.00;2.80;;;;;;;17.74;34.91;97289.00;5021751;28;20053;-61
2022/09/24 08:53:58;;;;;;;3.55;2.85;;;;;;;18.22;34.21;97348.72;5044577;28;20102;-63
2022/09/24 08:56:31;;;;;;;3.63;2.80;;;;;;;18.22;33.45;97337.50;5047486;28;20058;-69
2022/09/24 08:59:20;;;;;;;3.33;3.13;;;;;;;18.23;33.02;97339.09;5050552;28;20048;-60
2022/09/24 09:02:00;;;;;;;3.50;3.25;;;;;;;18.32;34.11;97335.84;5054337;28;20076;-62
2022/09/24 09:04:41;;;;;;;3.30;3.00;;;;;;;17.81;34.64;97255.34;5051098;28;20456;-70
2022/09/24 09:07:22;;;;;;;3.40;3.10;;;;;;;18.39;34.85;97335.78;5042617;28;20049;-74
2022/09/24 09:09:52;;;;;;;3.88;3.17;;;;;;;18.39;34.81;97353.41;5027481;28;20524;-73
2022/09/24 09:12:37;;;;;;;3.03;2.83;;;;;;;18.48;34.37;97336.91;5027151;28;20115;-74
2022/09/24 09:15:13;;;;;;;2.97;2.80;;;;;;;18.33;34.01;97310.16;5031448;28;20060;-61
2022/09/24 09:17:54;;;;;;;3.55;3.28;;;;;;;18.46;34.23;97328.13;5026337;28;20295;-62
2022/09/24 09:20:28;;;;;;;3.47;3.25;;;;;;;18.47;34.69;97335.31;5051386;28;20076;-70
2022/09/24 09:23:00;;;;;;;3.17;2.97;;;;;;;18.32;34.45;97294.53;5060259;28;20079;-65
2022/09/24 09:25:35;;;;;;;3.50;3.30;;;;;;;18.67;34.28;97325.09;5065002;28;20137;-66
2022/09/24 09:28:16;;;;;;;5.22;3.60;;;;;;;18.68;34.22;97323.91;5067306;28;20057;-65
2022/09/24 09:30:51;;;;;;;4.22;3.58;;;;;;;18.75;34.46;97320.19;5065225;28;20094;-67
2022/09/24 09:33:36;;;;;;;3.30;3.10;;;;;;;18.82;34.61;97315.31;5065685;28;20438;-65
2022/09/24 09:36:37;;;;;;;3.65;3.35;;;;;;;18.89;34.88;97306.03;5066626;28;20487;-66
2022/09/24 09:39:36;;;;;;;4.15;3.20;;;;;;;19.00;34.69;97321.50;5065252;28;20056;-66
2022/09/24 09:42:06;;;;;;;3.30;3.10;;;;;;;19.02;34.55;97321.91;5065025;28;20084;-66
2022/09/24 09:44:40;;;;;;;4.00;3.70;;;;;;;18.19;34.45;97226.19;5066360;28;20084;-69
2022/09/24 09:47:25;;;;;;;3.67;3.38;;;;;;;18.99;34.04;97303.09;5065045;28;20486;-65
2022/09/24 09:49:56;;;;;;;3.50;3.20;;;;;;;18.40;33.53;97213.97;5065660;28;20220;-66
2022/09/24 09:52:27;;;;;;;4.03;3.47;;;;;;;18.81;33.54;97302.47;5066352;28;20113;-67
2022/09/24 09:54:54;;;;;;;4.68;3.53;;;;;;;18.72;33.56;97265.69;5066227;28;20052;-66
2022/09/24 09:57:23;;;;;;;3.58;3.35;;;;;;;19.01;33.46;97266.97;5066419;28;20136;-66
2022/09/24 09:59:54;;;;;;;3.13;2.92;;;;;;;19.41;32.63;97296.94;5066236;28;20106;-68
2022/09/24 10:02:30;;;;;;;3.05;2.85;;;;;;;19.52;33.05;97302.44;5066303;28;20101;-65
2022/09/24 10:05:00;;;;;;;3.63;3.42;;;;;;;19.70;33.07;97300.16;5064800;28;20570;-65
2022/09/24 10:07:27;;;;;;;3.65;3.45;;;;;;;19.78;32.37;97300.84;5066236;28;20087;-65
2022/09/24 10:10:02;;;;;;;3.63;3.33;;;;;;;19.86;32.13;97297.50;5048716;28;20057;-65
2022/09/24 10:12:29;;;;;;;4.32;3.30;;;;;;;19.18;31.92;97181.69;5044763;28;20045;-64
2022/09/24 10:15:16;;;;;;;4.10;3.70;;;;;;;20.07;32.30;97299.19;5045779;28;20146;-65
2022/09/24 10:17:45;;;;;;;3.58;2.78;;;;;;;19.25;33.24;97181.56;5045881;28;20483;-65
2022/09/24 10:20:20;;;;;;;3.50;3.20;;;;;;;19.83;33.00;97289.13;5046283;28;20103;-67
2022/09/24 10:22:52;;;;;;;5.43;2.95;;;;;;;19.81;33.44;97260.63;5046280;28;20063;-65
2022/09/24 10:25:25;;;;;;;3.25;3.05;;;;;;;19.97;33.04;97272.03;5045674;28;20069;-65
2022/09/24 10:30:32;;;;;;;3.57;3.27;;;;;;;20.12;32.52;97284.66;5045378;28;20588;-65
2022/09/24 10:30:57;;;;;;;3.42;3.13;;;;;;;19.57;32.73;97292.75;5046270;28;20891;-70
2022/09/24 10:33:25;;;;;;;2.95;2.75;;;;;;;19.87;31.98;97273.00;5045904;28;20127;-65
2022/09/24 10:36:03;;;;;;;3.80;3.50;;;;;;;20.00;32.39;97259.91;5045265;28;20482;-65
2022/09/24 10:38:30;;;;;;;3.95;3.58;;;;;;;19.50;32.07;97182.03;5045709;28;20061;-64
2022/09/24 10:40:58;;;;;;;3.63;3.38;;;;;;;19.97;33.15;97201.72;5045225;28;20140;-66
2022/09/24 10:43:25;;;;;;;3.45;3.25;;;;;;;20.65;32.22;97276.88;5044493;28;20099;-68
2022/09/24 10:46:16;;;;;;;3.90;3.70;;;;;;;20.77;33.92;97264.22;5045029;28;20061;-67
2022/09/24 10:48:49;;;;;;;3.70;3.50;;;;;;;20.65;32.44;97233.84;5045622;28;20131;-68
2022/09/24 10:51:25;;;;;;;3.53;3.00;;;;;;;20.91;32.39;97261.88;5045215;28;20090;-66
2022/09/24 10:53:58;;;;;;;3.92;3.65;;;;;;;21.12;31.91;97255.03;5043703;28;20295;-66
2022/09/24 10:56:46;;;;;;;3.78;3.47;;;;;;;21.38;31.65;97251.28;5043450;28;20049;-66
2022/09/24 10:59:33;;;;;;;3.60;3.30;;;;;;;21.40;31.27;97234.72;5044874;28;20084;-66
2022/09/24 11:02:22;;;;;;;3.72;3.40;;;;;;;21.43;30.48;97247.94;5044454;28;20122;-66
2022/09/24 11:05:09;;;;;;;3.60;3.40;;;;;;;21.47;30.68;97251.47;5044456;28;20139;-65
2022/09/24 11:07:59;;;;;;;4.60;4.20;;;;;;;21.48;30.51;97244.59;5044705;28;20053;-65
2022/09/24 11:11:18;;;;;;;4.38;4.07;;;;;;;21.27;30.86;97249.91;5024508;28;20463;-69
2022/09/24 11:13:51;;;;;;;3.92;3.60;;;;;;;21.25;30.21;97247.53;5027845;28;20491;-65
2022/09/24 11:16:29;;;;;;;4.07;3.77;;;;;;;21.14;30.70;97244.16;5024330;28;20440;-66
2022/09/24 11:19:01;;;;;;;3.78;3.58;;;;;;;20.74;30.73;97164.47;5025082;28;20156;-66
2022/09/24 11:21:45;;;;;;;5.40;5.00;;;;;;;21.28;30.63;97232.56;5023146;28;20465;-66
2022/09/24 11:24:26;;;;;;;4.15;3.75;;;;;;;21.33;30.30;97240.50;5024862;28;20192;-65
2022/09/24 11:27:21;;;;;;;3.67;3.47;;;;;;;21.06;30.27;97231.44;5025257;28;20562;-65
2022/09/24 11:29:47;;;;;;;;;;;;;;;21.18;30.41;97233.63;5025362;28;20079;-66
2022/09/24 11:32:29;;;;;;;3.72;3.20;;;;;;;21.29;30.19;97234.16;5024531;28;19924;-66
2022/09/24 11:35:23;;;;;;;4.93;3.30;;;;;;;21.31;29.59;97226.06;5024227;28;20421;-66
2022/09/24 11:38:05;;;;;;;;;;;;;;;20.49;30.11;97152.94;5023446;28;20152;-65
2022/09/24 11:40:53;;;;;;;3.28;3.08;;;;;;;21.26;29.73;97223.75;5024209;28;20352;-65
2022/09/24 11:43:51;;;;;;;3.25;3.05;;;;;;;21.35;29.73;97220.34;5024720;28;20057;-66
2022/09/24 11:47:00;;;;;;;4.85;4.03;;;;;;;21.44;29.83;97218.53;5022902;28;20088;-66
2022/09/24 11:49:50;;;;;;;3.83;3.60;;;;;;;21.36;29.72;97222.72;5022602;28;20049;-66
2022/09/24 11:52:36;;;;;;;4.93;3.58;;;;;;;21.31;29.79;97223.22;5023706;28;20131;-67
2022/09/24 11:55:21;;;;;;;3.55;3.28;;;;;;;20.98;30.00;97215.91;5023946;28;20085;-66
2022/09/24 11:57:52;;;;;;;3.38;3.17;;;;;;;21.43;30.22;97205.66;5024153;28;20053;-65
2022/09/24 12:00:19;;;;;;;4.25;3.72;;;;;;;21.57;30.29;97216.59;5024179;28;20512;-65
2022/09/24 12:02:52;;;;;;;5.80;3.90;;;;;;;21.59;30.53;97219.75;5024424;28;20065;-66
2022/09/24 12:05:59;;;;;;;3.25;3.05;;;;;;;21.54;29.50;97217.50;5023079;28;20046;-67
2022/09/24 12:08:37;;;;;;;3.95;3.72;;;;;;;19.61;29.98;96916.88;5027561;28;20053;-66
2022/09/24 12:11:32;;;;;;;4.60;3.92;;;;;;;21.57;29.91;97227.88;5044133;28;20060;-68